createdAt,value
2023-04-13T00:01:54.943Z,99522.09
2023-04-13T00:04:18.603Z,99525.78
2023-04-13T00:06:42.850Z,99520.81
2023-04-13T00:09:06.756Z,99523.22
2023-04-13T00:11:32.066Z,99514.53
2023-04-13T00:13:55.745Z,99506.19
2023-04-13T00:16:20.660Z,99495.63
2023-04-13T00:18:45.258Z,99492.06
2023-04-13T00:21:09.775Z,99499.78
2023-04-13T00:23:33.409Z,99508.59
2023-04-13T00:25:56.968Z,99504.75
2023-04-13T00:28:20.615Z,99502.84
2023-04-13T00:30:44.200Z,99516.44
2023-04-13T00:33:09.217Z,99532.84
2023-04-13T00:35:33.182Z,99529.78
2023-04-13T00:37:58.817Z,99537.91
2023-04-13T00:40:22.448Z,99542.03
2023-04-13T00:42:46.855Z,99538.66
2023-04-13T00:45:12.173Z,99540.41
2023-04-13T00:47:36.216Z,99550.72
2023-04-13T00:50:04.256Z,99570.66
2023-04-13T00:52:29.033Z,99560.38
2023-04-13T00:54:56.490Z,99571.88
2023-04-13T00:57:21.306Z,99569.09
2023-04-13T00:59:45.292Z,99575.16
2023-04-13T01:02:08.977Z,99574.56
2023-04-13T01:04:33.803Z,99588.84
2023-04-13T01:07:17.810Z,99601.00
2023-04-13T01:09:52.533Z,99608.06
2023-04-13T01:12:23.445Z,99611.91
2023-04-13T01:14:56.143Z,99612.47
2023-04-13T01:17:25.754Z,99624.19
2023-04-13T01:19:57.876Z,99623.63
2023-04-13T01:22:28.675Z,99625.63
2023-04-13T01:25:08.925Z,99617.41
2023-04-13T01:27:44.985Z,99610.59
2023-04-13T01:30:11.256Z,99627.50
2023-04-13T01:32:35.392Z,99636.69
2023-04-13T01:34:59.588Z,99635.16
2023-04-13T01:37:25.763Z,99648.66
2023-04-13T01:39:51.391Z,99670.41
2023-04-13T01:42:21.068Z,99670.81
2023-04-13T01:44:48.273Z,99667.28
2023-04-13T01:47:19.080Z,99677.44
2023-04-13T01:49:53.046Z,99670.38
2023-04-13T01:52:35.633Z,99685.59
2023-04-13T01:55:02.367Z,99675.72
2023-04-13T01:57:29.130Z,99690.66
2023-04-13T01:59:55.093Z,99706.75
2023-04-13T02:02:19.047Z,99719.69
2023-04-13T02:04:42.934Z,99715.78
2023-04-13T02:07:06.670Z,99715.34
2023-04-13T02:09:35.325Z,99715.00
2023-04-13T02:11:58.852Z,99716.03
2023-04-13T02:14:23.076Z,99710.38
2023-04-13T02:16:48.930Z,99719.94
2023-04-13T02:19:13.618Z,99723.19
2023-04-13T02:21:37.216Z,99714.75
2023-04-13T02:24:01.326Z,99715.88
2023-04-13T02:26:26.262Z,99720.00
2023-04-13T02:28:51.318Z,99725.19
2023-04-13T02:31:17.087Z,99726.16
2023-04-13T02:33:44.889Z,99731.03
2023-04-13T02:36:10.062Z,99727.84
2023-04-13T02:38:39.411Z,99720.34
2023-04-13T02:41:09.300Z,99725.59
2023-04-13T02:43:33.397Z,99726.59
2023-04-13T02:45:58.362Z,99729.41
2023-04-13T02:48:27.038Z,99731.22
2023-04-13T02:50:55.657Z,99727.28
2023-04-13T02:53:24.315Z,99741.31
2023-04-13T02:55:53.623Z,99731.13
2023-04-13T02:58:17.301Z,99743.72
2023-04-13T03:00:48.723Z,99735.56
2023-04-13T03:03:17.102Z,99741.47
2023-04-13T03:05:43.081Z,99750.31
2023-04-13T03:08:12.423Z,99752.28
2023-04-13T03:10:45.757Z,99748.75
2023-04-13T03:13:09.421Z,99743.97
2023-04-13T03:15:33.870Z,99738.78
2023-04-13T03:17:59.919Z,99735.91
2023-04-13T03:20:24.822Z,99748.06
2023-04-13T03:22:53.709Z,99748.03
2023-04-13T03:25:19.698Z,99743.00
2023-04-13T03:27:44.130Z,99747.97
2023-04-13T03:30:09.487Z,99759.00
2023-04-13T03:32:42.654Z,99750.44
2023-04-13T03:35:07.061Z,99755.31
2023-04-13T03:37:32.736Z,99755.47
2023-04-13T03:40:09.858Z,99749.34
2023-04-13T03:42:42.450Z,99751.63
2023-04-13T03:45:07.863Z,99745.75
2023-04-13T03:47:31.821Z,99746.06
2023-04-13T03:49:55.709Z,99741.50
2023-04-13T03:52:19.530Z,99745.88
2023-04-13T03:54:50.339Z,99750.25
2023-04-13T03:57:14.172Z,99762.31
2023-04-13T03:59:39.758Z,99767.81
2023-04-13T04:02:07.212Z,99766.53
2023-04-13T04:04:35.796Z,99774.03
2023-04-13T04:06:59.450Z,99774.16
2023-04-13T04:09:23.179Z,99783.75
2023-04-13T04:11:47.078Z,99780.88
2023-04-13T04:14:15.407Z,99770.59
2023-04-13T04:16:49.234Z,99777.13
2023-04-13T04:19:14.916Z,99787.38
2023-04-13T04:21:38.499Z,99786.63
2023-04-13T04:24:08.911Z,99788.59
2023-04-13T04:26:38.049Z,99785.91
2023-04-13T04:29:02.985Z,99794.19
2023-04-13T04:31:36.763Z,99787.84
2023-04-13T04:34:05.076Z,99786.88
2023-04-13T04:36:31.748Z,99780.97
2023-04-13T04:39:02.633Z,99789.94
2023-04-13T04:41:31.368Z,99795.81
2023-04-13T04:44:02.820Z,99804.56
2023-04-13T04:46:32.241Z,99808.03
2023-04-13T04:49:01.666Z,99815.81
2023-04-13T04:51:28.071Z,99815.09
2023-04-13T04:53:52.503Z,99803.09
2023-04-13T04:56:18.384Z,99802.41
2023-04-13T04:58:46.355Z,99807.59
2023-04-13T05:01:10.854Z,99807.84
2023-04-13T05:03:36.173Z,99803.50
2023-04-13T05:06:15.058Z,99807.47
2023-04-13T05:08:44.797Z,99812.81
2023-04-13T05:11:09.784Z,99812.72
2023-04-13T05:13:33.405Z,99796.41
2023-04-13T05:16:08.351Z,99801.75
2023-04-13T05:18:33.065Z,99800.78
2023-04-13T05:20:57.013Z,99810.47
2023-04-13T05:23:20.745Z,99814.13
2023-04-13T05:25:52.763Z,99813.81
2023-04-13T05:28:18.378Z,99816.75
2023-04-13T05:30:43.727Z,99823.28
2023-04-13T05:33:09.295Z,99829.81
2023-04-13T05:35:33.667Z,99831.47
2023-04-13T05:38:00.191Z,99827.59
2023-04-13T05:40:27.729Z,99829.28
2023-04-13T05:42:52.763Z,99832.66
2023-04-13T05:45:22.099Z,99840.19
2023-04-13T05:47:59.945Z,99841.75
2023-04-13T05:50:23.643Z,99856.00
2023-04-13T05:52:48.663Z,99855.38
2023-04-13T05:55:12.688Z,99861.69
2023-04-13T05:57:40.085Z,99858.75
2023-04-13T06:00:12.139Z,99860.72
2023-04-13T06:02:45.098Z,99870.81
2023-04-13T06:05:13.780Z,99876.97
2023-04-13T06:07:37.401Z,99881.88
2023-04-13T06:10:02.200Z,99888.66
2023-04-13T06:12:25.892Z,99891.03
2023-04-13T06:14:49.519Z,99890.91
2023-04-13T06:17:14.455Z,99886.44
2023-04-13T06:19:38.411Z,99889.56
2023-04-13T06:22:02.353Z,99893.13
2023-04-13T06:24:28.405Z,99896.34
2023-04-13T06:26:52.494Z,99894.28
2023-04-13T06:29:16.628Z,99894.09
2023-04-13T06:31:48.606Z,99896.50
2023-04-13T06:34:16.192Z,99904.72
2023-04-13T06:36:40.601Z,99915.88
2023-04-13T06:39:07.122Z,99912.06
2023-04-13T06:41:31.481Z,99919.84
2023-04-13T06:44:10.600Z,99920.63
2023-04-13T06:46:44.387Z,99918.53
2023-04-13T06:49:09.286Z,99926.19
2023-04-13T06:51:36.696Z,99926.91
2023-04-13T06:54:00.987Z,99935.00
2023-04-13T06:56:24.516Z,99937.28
2023-04-13T06:58:48.345Z,99945.84
2023-04-13T07:01:12.450Z,99951.97
2023-04-13T07:03:37.733Z,99956.00
2023-04-13T07:06:01.867Z,99958.19
2023-04-13T07:08:28.219Z,99951.78
2023-04-13T07:10:54.859Z,99960.31
2023-04-13T07:13:27.239Z,99968.50
2023-04-13T07:15:52.173Z,99959.66
2023-04-13T07:18:15.911Z,99958.63
2023-04-13T07:20:39.825Z,99964.41
2023-04-13T07:23:03.860Z,99961.72
2023-04-13T07:25:28.947Z,99955.53
2023-04-13T07:27:52.503Z,99956.22
2023-04-13T07:30:18.558Z,99956.09
2023-04-13T07:32:43.963Z,99953.41
2023-04-13T07:35:08.633Z,99968.63
2023-04-13T07:37:34.092Z,99960.31
2023-04-13T07:39:58.293Z,99962.59
2023-04-13T07:42:23.804Z,99974.84
2023-04-13T07:44:49.058Z,99963.00
2023-04-13T07:47:14.041Z,99963.00
2023-04-13T07:49:39.595Z,99982.03
2023-04-13T07:52:08.574Z,99990.81
2023-04-13T07:54:35.024Z,99984.47
2023-04-13T07:56:58.674Z,99982.19
2023-04-13T07:59:26.697Z,99975.53
2023-04-13T08:01:51.067Z,99974.34
2023-04-13T08:04:15.833Z,99971.81
2023-04-13T08:06:40.954Z,99963.72
2023-04-13T08:09:05.311Z,99968.34
2023-04-13T08:11:29.477Z,99975.13
2023-04-13T08:13:59.179Z,99982.78
2023-04-13T08:16:24.700Z,99985.78
2023-04-13T08:18:48.422Z,99981.06
2023-04-13T08:21:15.045Z,99984.25
2023-04-13T08:23:42.351Z,99988.88
2023-04-13T08:26:06.303Z,99990.72
2023-04-13T08:28:32.083Z,99988.31
2023-04-13T08:30:56.611Z,99994.47
2023-04-13T08:33:21.992Z,100006.94
2023-04-13T08:35:45.638Z,99998.38
2023-04-13T08:38:09.453Z,100007.25
2023-04-13T08:40:40.122Z,100008.00
2023-04-13T08:43:08.861Z,100003.50
2023-04-13T08:45:33.396Z,100004.84
2023-04-13T08:47:57.778Z,100004.72
2023-04-13T08:50:26.823Z,100007.72
2023-04-13T08:52:51.623Z,100006.75
2023-04-13T08:55:15.784Z,100013.66
2023-04-13T08:57:42.284Z,100015.44
2023-04-13T09:00:12.541Z,100010.25
2023-04-13T09:02:42.140Z,100021.22
2023-04-13T09:05:16.653Z,100012.19
2023-04-13T09:07:54.162Z,100017.56
2023-04-13T09:10:20.304Z,100016.97
2023-04-13T09:12:44.557Z,100013.63
2023-04-13T09:15:09.623Z,100031.13
2023-04-13T09:17:41.993Z,100017.94
2023-04-13T09:20:18.961Z,100016.38
2023-04-13T09:22:43.011Z,100015.53
2023-04-13T09:25:20.813Z,100026.25
2023-04-13T09:27:45.392Z,100018.94
2023-04-13T09:30:11.677Z,100025.72
2023-04-13T09:32:36.169Z,100029.81
2023-04-13T09:35:05.384Z,100032.50
2023-04-13T09:37:30.856Z,100036.88
2023-04-13T09:39:55.508Z,100035.38
2023-04-13T09:42:21.590Z,100040.91
2023-04-13T09:44:46.137Z,100035.72
2023-04-13T09:47:13.078Z,100043.63
2023-04-13T09:49:41.117Z,100041.28
2023-04-13T09:52:07.708Z,100029.63
2023-04-13T09:54:32.130Z,100040.72
2023-04-13T09:56:58.025Z,100035.81
2023-04-13T09:59:24.861Z,100040.53
2023-04-13T10:01:50.293Z,100040.81
2023-04-13T10:04:14.620Z,100037.06
2023-04-13T10:06:40.805Z,100032.75
2023-04-13T10:09:04.453Z,100037.88
2023-04-13T10:11:28.201Z,100046.47
2023-04-13T10:13:58.327Z,100050.34
2023-04-13T10:16:46.447Z,100042.22
2023-04-13T10:19:14.180Z,100041.09
2023-04-13T10:21:40.618Z,100049.13
2023-04-13T10:24:11.327Z,100053.41
2023-04-13T10:26:37.426Z,100056.53
2023-04-13T10:29:02.516Z,100051.31
2023-04-13T10:31:39.246Z,100052.63
2023-04-13T10:34:02.937Z,100059.00
2023-04-13T10:36:39.255Z,100052.09
2023-04-13T10:39:02.864Z,100052.31
2023-04-13T10:41:28.492Z,100050.69
2023-04-13T10:44:02.775Z,100046.81
2023-04-13T10:46:26.440Z,100051.88
2023-04-13T10:48:59.465Z,100049.16
2023-04-13T10:51:23.210Z,100063.47
2023-04-13T10:53:47.040Z,100054.91
2023-04-13T10:56:17.906Z,100064.38
2023-04-13T10:58:42.169Z,100065.38
2023-04-13T11:01:06.331Z,100068.97
2023-04-13T11:03:30.649Z,100077.66
2023-04-13T11:06:02.536Z,100076.47
2023-04-13T11:08:28.096Z,100070.75
2023-04-13T11:10:53.276Z,100083.97
2023-04-13T11:13:17.075Z,100081.94
2023-04-13T11:15:40.841Z,100085.22
2023-04-13T11:18:04.748Z,100081.69
2023-04-13T11:20:33.421Z,100076.47
2023-04-13T11:22:58.621Z,100079.88
2023-04-13T11:25:22.189Z,100086.25
2023-04-13T11:27:49.649Z,100084.59
2023-04-13T11:30:14.038Z,100087.69
2023-04-13T11:32:41.740Z,100077.69
2023-04-13T11:35:09.774Z,100081.19
2023-04-13T11:37:37.758Z,100083.75
2023-04-13T11:40:10.268Z,100085.31
2023-04-13T11:42:33.984Z,100085.19
2023-04-13T11:44:58.130Z,100078.28
2023-04-13T11:47:22.253Z,100083.91
2023-04-13T11:49:48.076Z,100086.50
2023-04-13T11:52:11.779Z,100080.03
2023-04-13T11:54:35.880Z,100084.09
2023-04-13T11:57:01.688Z,100088.22
2023-04-13T11:59:25.593Z,100093.13
2023-04-13T12:02:01.512Z,100102.53
2023-04-13T12:04:27.323Z,100089.38
2023-04-13T12:06:51.263Z,100085.97
2023-04-13T12:09:19.164Z,100095.44
2023-04-13T12:11:50.058Z,100089.97
2023-04-13T12:14:51.972Z,100100.94
2023-04-13T12:19:43.862Z,100094.47
2023-04-13T12:22:07.728Z,100098.25
2023-04-13T12:24:34.141Z,100099.78
2023-04-13T12:29:25.952Z,100107.03
2023-04-13T12:31:49.589Z,100101.75
2023-04-13T12:34:13.199Z,100097.00
2023-04-13T12:36:37.121Z,100089.13
2023-04-13T12:39:01.094Z,100099.75
2023-04-13T12:41:24.852Z,100103.34
2023-04-13T12:43:48.439Z,100100.34
2023-04-13T12:46:13.365Z,100104.56
2023-04-13T12:48:36.929Z,100104.41
2023-04-13T12:51:00.507Z,100103.84
2023-04-13T12:53:24.082Z,100102.63
2023-04-13T12:55:47.615Z,100108.88
2023-04-13T12:58:12.460Z,100114.13
2023-04-13T13:00:36.236Z,100102.47
2023-04-13T13:03:13.118Z,100096.81
2023-04-13T13:05:37.533Z,100097.63
2023-04-13T13:08:01.087Z,100093.03
2023-04-13T13:10:29.675Z,100104.16
2023-04-13T13:12:53.647Z,100107.00
2023-04-13T13:15:17.400Z,100101.59
2023-04-13T13:17:41.323Z,100102.44
2023-04-13T13:20:08.978Z,100097.91
2023-04-13T13:22:32.545Z,100101.59
2023-04-13T13:24:56.932Z,100111.78
2023-04-13T13:28:00.887Z,100101.66
2023-04-13T13:30:04.696Z,100099.50
2023-04-13T13:32:30.235Z,100094.91
2023-04-13T13:34:53.965Z,100088.13
2023-04-13T13:37:18.875Z,100087.59
2023-04-13T13:39:42.604Z,100079.81
2023-04-13T13:42:06.799Z,100094.88
2023-04-13T13:44:30.803Z,100094.63
2023-04-13T13:46:54.340Z,100096.09
2023-04-13T13:49:19.950Z,100104.66
2023-04-13T13:52:12.901Z,100107.34
2023-04-13T13:54:45.602Z,100103.31
2023-04-13T13:57:09.264Z,100107.22
2023-04-13T13:59:32.819Z,100106.41
2023-04-13T14:01:56.664Z,100111.38
2023-04-13T14:04:20.417Z,100112.22
2023-04-13T14:06:44.113Z,100114.00
2023-04-13T14:09:07.809Z,100117.38
2023-04-13T14:11:33.075Z,100109.19
2023-04-13T14:13:56.589Z,100109.81
2023-04-13T14:16:20.255Z,100112.50
2023-04-13T14:18:43.884Z,100114.91
2023-04-13T14:21:09.092Z,100118.44
2023-04-13T14:23:32.994Z,100114.47
2023-04-13T14:25:56.561Z,100112.31
2023-04-13T14:28:21.481Z,100124.78
2023-04-13T14:30:45.425Z,100121.78
2023-04-13T14:33:09.255Z,100126.94
2023-04-13T14:35:33.029Z,100121.59
2023-04-13T14:37:56.590Z,100131.50
2023-04-13T14:40:22.562Z,100131.19
2023-04-13T14:42:46.716Z,100131.31
2023-04-13T14:45:12.702Z,100140.72
2023-04-13T14:47:36.961Z,100145.84
2023-04-13T14:50:01.008Z,100150.06
2023-04-13T14:52:24.903Z,100143.56
2023-04-13T14:54:48.773Z,100135.78
2023-04-13T14:57:12.337Z,100134.16
2023-04-13T14:59:35.994Z,100137.34
2023-04-13T15:02:01.540Z,100137.31
2023-04-13T15:04:25.317Z,100140.91
2023-04-13T15:06:49.425Z,100138.88
2023-04-13T15:09:13.135Z,100139.56
2023-04-13T15:11:37.298Z,100147.63
2023-04-13T15:14:00.985Z,100152.50
2023-04-13T15:16:24.628Z,100155.19
2023-04-13T15:18:49.675Z,100148.03
2023-04-13T15:21:13.229Z,100151.41
2023-04-13T15:23:36.902Z,100164.09
2023-04-13T15:26:01.207Z,100167.97
2023-04-13T15:28:24.840Z,100168.75
2023-04-13T15:30:48.451Z,100174.25
2023-04-13T15:33:12.207Z,100180.34
2023-04-13T15:35:37.197Z,100187.22
2023-04-13T15:38:03.161Z,100176.94
2023-04-13T15:40:26.866Z,100179.09
2023-04-13T15:42:50.913Z,100179.41
2023-04-13T15:45:14.757Z,100179.59
2023-04-13T15:47:38.524Z,100195.25
2023-04-13T15:50:02.157Z,100194.50
2023-04-13T15:52:27.135Z,100191.31
2023-04-13T15:54:50.705Z,100189.53
2023-04-13T15:57:15.117Z,100185.41
2023-04-13T15:59:38.662Z,100198.00
2023-04-13T16:02:03.196Z,100197.59
2023-04-13T16:04:27.252Z,100199.25
2023-04-13T16:07:05.153Z,100205.13
2023-04-13T16:09:36.421Z,100203.03
2023-04-13T16:12:02.723Z,100202.38
2023-04-13T16:14:27.820Z,100208.34
2023-04-13T16:16:53.506Z,100209.00
2023-04-13T16:19:18.225Z,100215.53
2023-04-13T16:21:43.505Z,100226.47
2023-04-13T16:24:08.667Z,100229.50
2023-04-13T16:26:33.961Z,100227.00
2023-04-13T16:28:57.677Z,100210.16
2023-04-13T16:31:21.407Z,100215.47
2023-04-13T16:33:45.061Z,100208.34
2023-04-13T16:36:09.932Z,100215.75
2023-04-13T16:38:33.520Z,100220.31
2023-04-13T16:40:57.101Z,100229.84
2023-04-13T16:43:22.760Z,100235.59
2023-04-13T16:45:46.301Z,100223.41
2023-04-13T16:48:09.939Z,100229.41
2023-04-13T16:50:33.555Z,100229.00
2023-04-13T16:52:57.282Z,100238.41
2023-04-13T16:55:20.903Z,100241.88
2023-04-13T16:57:45.224Z,100244.59
2023-04-13T17:00:12.415Z,100248.97
2023-04-13T17:02:37.142Z,100257.63
2023-04-13T17:05:01.176Z,100249.28
2023-04-13T17:07:26.899Z,100260.09
2023-04-13T17:09:50.818Z,100259.41
2023-04-13T17:12:14.422Z,100255.91
2023-04-13T17:14:37.923Z,100263.88
2023-04-13T17:17:02.900Z,100263.03
2023-04-13T17:19:27.174Z,100266.22
2023-04-13T17:21:52.065Z,100275.34
2023-04-13T17:24:15.788Z,100276.53
2023-04-13T17:26:39.362Z,100272.50
2023-04-13T17:29:02.986Z,100277.22
2023-04-13T17:31:27.113Z,100276.22
2023-04-13T17:33:52.077Z,100280.44
2023-04-13T17:36:15.828Z,100278.75
2023-04-13T17:38:39.355Z,100274.38
2023-04-13T17:41:02.963Z,100270.28
2023-04-13T17:43:26.550Z,100276.53
2023-04-13T17:45:50.248Z,100282.25
2023-04-13T17:48:13.877Z,100278.84
2023-04-13T17:50:38.864Z,100281.69
2023-04-13T17:53:04.139Z,100287.22
2023-04-13T17:55:27.939Z,100289.38
2023-04-13T17:57:51.447Z,100287.09
2023-04-13T18:00:17.006Z,100291.44
2023-04-13T18:02:40.671Z,100286.34
2023-04-13T18:05:07.001Z,100288.16
2023-04-13T18:07:32.119Z,100293.28
2023-04-13T18:09:57.096Z,100288.53
2023-04-13T18:12:20.980Z,100282.69
2023-04-13T18:14:44.925Z,100287.34
2023-04-13T18:17:08.521Z,100283.88
2023-04-13T18:19:32.897Z,100289.16
2023-04-13T18:21:56.465Z,100287.56
2023-04-13T18:24:21.426Z,100291.31
2023-04-13T18:26:44.973Z,100296.41
2023-04-13T18:29:08.917Z,100298.13
2023-04-13T18:31:33.311Z,100302.03
2023-04-13T18:33:57.633Z,100305.94
2023-04-13T18:36:21.428Z,100307.44
2023-04-13T18:38:46.306Z,100313.31
2023-04-13T18:41:11.317Z,100315.03
2023-04-13T18:43:34.998Z,100324.69
2023-04-13T18:45:58.565Z,100331.25
2023-04-13T18:48:22.322Z,100334.69
2023-04-13T18:50:46.432Z,100337.94
2023-04-13T18:53:10.014Z,100346.59
2023-04-13T18:55:33.607Z,100352.00
2023-04-13T18:57:58.696Z,100364.50
2023-04-13T19:00:23.110Z,100370.00
2023-04-13T19:02:49.677Z,100367.63
2023-04-13T19:05:13.765Z,100377.25
2023-04-13T19:07:38.048Z,100388.97
2023-04-13T19:10:01.568Z,100388.50
2023-04-13T19:12:25.160Z,100389.47
2023-04-13T19:14:50.451Z,100412.53
2023-04-13T19:17:14.569Z,100419.59
2023-04-13T19:19:38.115Z,100411.75
2023-04-13T19:22:01.731Z,100402.81
2023-04-13T19:24:25.320Z,100405.19
2023-04-13T19:26:49.414Z,100424.84
2023-04-13T19:29:13.503Z,100421.97
2023-04-13T19:31:40.642Z,100420.56
2023-04-13T19:34:04.467Z,100430.84
2023-04-13T19:36:28.085Z,100437.47
2023-04-13T19:38:51.908Z,100442.22
2023-04-13T19:41:15.671Z,100447.53
2023-04-13T19:43:39.216Z,100453.97
2023-04-13T19:46:03.069Z,100453.69
2023-04-13T19:48:28.339Z,100465.91
2023-04-13T19:50:51.930Z,100463.22
2023-04-13T19:53:15.478Z,100463.88
2023-04-13T19:55:39.224Z,100468.25
2023-04-13T19:58:02.997Z,100467.34
2023-04-13T20:00:28.039Z,100470.59
2023-04-13T20:02:53.025Z,100476.91
2023-04-13T20:05:19.654Z,100469.91
2023-04-13T20:07:43.331Z,100467.09
2023-04-13T20:10:08.849Z,100463.66
2023-04-13T20:12:32.488Z,100466.84
2023-04-13T20:14:56.129Z,100467.91
2023-04-13T20:17:19.727Z,100465.63
2023-04-13T20:19:43.396Z,100461.13
2023-04-13T20:22:10.222Z,100461.88
2023-04-13T20:24:33.796Z,100461.28
2023-04-13T20:26:57.334Z,100457.03
2023-04-13T20:29:22.710Z,100450.81
2023-04-13T20:31:46.369Z,100447.50
2023-04-13T20:34:13.498Z,100456.63
2023-04-13T20:36:37.023Z,100448.97
2023-04-13T20:39:02.206Z,100455.31
2023-04-13T20:41:26.273Z,100444.00
2023-04-13T20:43:52.245Z,100446.06
2023-04-13T20:46:16.602Z,100442.66
2023-04-13T20:51:09.046Z,100441.97
2023-04-13T20:53:32.630Z,100431.72
2023-04-13T20:55:58.432Z,100431.84
2023-04-13T20:58:22.271Z,100425.66
2023-04-13T21:00:46.030Z,100427.13
2023-04-13T21:03:10.132Z,100422.25
2023-04-13T21:05:33.954Z,100420.66
2023-04-13T21:07:57.786Z,100417.63
2023-04-13T21:10:21.489Z,100417.28
2023-04-13T21:12:46.937Z,100420.78
2023-04-13T21:15:12.012Z,100422.63
2023-04-13T21:17:35.823Z,100422.72
2023-04-13T21:19:59.711Z,100419.09
2023-04-13T21:22:23.798Z,100427.25
2023-04-13T21:24:47.316Z,100435.88
2023-04-13T21:27:10.881Z,100434.41
2023-04-13T21:29:36.499Z,100438.31
2023-04-13T21:32:01.506Z,100431.34
2023-04-13T21:34:27.309Z,100426.47
2023-04-13T21:36:52.064Z,100423.44
2023-04-13T21:39:16.075Z,100426.22
2023-04-13T21:41:41.980Z,100421.84
2023-04-13T21:44:05.518Z,100419.56
2023-04-13T21:46:30.841Z,100420.75
2023-04-13T21:48:54.401Z,100420.34
2023-04-13T21:51:18.422Z,100409.78
2023-04-13T21:53:41.961Z,100413.53
2023-04-13T21:56:06.909Z,100408.78
2023-04-13T21:58:39.059Z,100410.84
2023-04-13T22:01:02.688Z,100405.72
2023-04-13T22:03:27.836Z,100411.41
2023-04-13T22:05:51.465Z,100411.41
2023-04-13T22:08:14.980Z,100421.09
2023-04-13T22:10:38.599Z,100416.75
2023-04-13T22:13:02.193Z,100426.91
2023-04-13T22:15:25.995Z,100423.28
2023-04-13T22:17:49.791Z,100433.22
2023-04-13T22:20:15.065Z,100434.66
2023-04-13T22:22:38.589Z,100442.06
2023-04-13T22:25:02.204Z,100442.94
2023-04-13T22:27:26.263Z,100441.44
2023-04-13T22:29:49.859Z,100447.03
2023-04-13T22:32:13.489Z,100442.75
2023-04-13T22:34:37.299Z,100446.72
2023-04-13T22:37:04.371Z,100453.03
2023-04-13T22:39:30.792Z,100454.00
2023-04-13T22:41:54.290Z,100459.56
2023-04-13T22:44:17.844Z,100457.00
2023-04-13T22:46:41.428Z,100446.31
2023-04-13T22:49:05.583Z,100456.38
2023-04-13T22:51:31.122Z,100457.59
2023-04-13T22:53:57.231Z,100452.13
2023-04-13T22:56:20.790Z,100449.66
2023-04-13T22:58:44.387Z,100447.44
2023-04-13T23:01:08.030Z,100439.84
2023-04-13T23:03:31.849Z,100438.13
2023-04-13T23:05:55.531Z,100444.56
2023-04-13T23:08:19.156Z,100439.22
2023-04-13T23:10:44.113Z,100440.06
2023-04-13T23:13:07.874Z,100435.34
2023-04-13T23:15:31.424Z,100437.09
2023-04-13T23:17:55.723Z,100440.09
2023-04-13T23:20:19.557Z,100438.16
2023-04-13T23:22:43.127Z,100440.72
2023-04-13T23:25:07.747Z,100432.50
2023-04-13T23:27:32.797Z,100428.22
2023-04-13T23:29:56.292Z,100415.94
2023-04-13T23:32:19.848Z,100406.53
2023-04-13T23:34:43.457Z,100404.59
2023-04-13T23:37:07.103Z,100411.34
2023-04-13T23:39:30.625Z,100400.88
2023-04-13T23:41:54.219Z,100398.72
2023-04-13T23:44:19.238Z,100401.38
2023-04-13T23:46:43.564Z,100408.22
2023-04-13T23:49:07.487Z,100402.13
2023-04-13T23:51:31.234Z,100413.28
2023-04-13T23:53:54.828Z,100423.63
2023-04-13T23:56:18.442Z,100420.72
2023-04-13T23:58:41.947Z,100417.97
